Time;durP1;ratioP1;P1;durP2;ratioP2;P2;SDS_P1;SDS_P2;PMS_P1;PMS_P2;Temp;Humidity;BMP_temperature;BMP_pressure;BME280_temperature;BME280_humidity;BME280_pressure;Samples;Min_cycle;Max_cycle;Signal;HPM_P1;HPM_P2
2022/01/04 00:00:45;;;;;;;69.30;37.87;;;;;;;;;;5014239;28;20391;-64
2022/01/04 00:03:11;;;;;;;69.13;39.93;;;;;;;;;;5015227;28;20017;-64
2022/01/04 00:05:37;;;;;;;74.03;39.87;;;;;;;;;;5015766;28;20029;-64
2022/01/04 00:08:08;;;;;;;72.83;39.90;;;;;;;;;;5015077;28;20041;-64
2022/01/04 00:10:34;;;;;;;76.80;41.13;;;;;;;;;;5013738;28;20034;-64
2022/01/04 00:15:45;;;;;;;77.35;40.42;;;;;;;;;;5003584;28;20419;-64
2022/01/04 00:18:11;;;;;;;74.03;41.13;;;;;;;;;;5015186;28;20056;-64
2022/01/04 00:20:37;;;;;;;76.87;43.03;;;;;;;;;;5014151;28;20105;-64
2022/01/04 00:23:04;;;;;;;81.37;41.97;;;;;;;;;;5012984;28;20026;-64
2022/01/04 00:25:30;;;;;;;78.40;41.93;;;;;;;;;;5014153;28;20056;-65
2022/01/04 00:27:56;;;;;;;80.63;42.37;;;;;;;;;;5014637;28;20080;-64
2022/01/04 00:30:28;;;;;;;80.90;42.23;;;;;;;;;;5014269;28;20085;-65
2022/01/04 00:32:54;;;;;;;80.97;42.67;;;;;;;;;;5014858;28;20030;-65
2022/01/04 00:35:20;;;;;;;91.77;45.50;;;;;;;;;;5014793;28;20512;-65
2022/01/04 00:37:46;;;;;;;87.30;46.07;;;;;;;;;;5014813;28;20104;-65
2022/01/04 00:40:12;;;;;;;91.90;46.13;;;;;;;;;;5014162;28;20704;-65
2022/01/04 00:42:38;;;;;;;87.33;46.43;;;;;;;;;;5014105;28;20039;-65
2022/01/04 00:45:04;;;;;;;87.87;46.77;;;;;;;;;;5013381;28;20049;-64
2022/01/04 00:47:44;;;;;;;93.70;47.57;;;;;;;;;;5014171;28;20029;-65
2022/01/04 00:50:10;;;;;;;93.10;47.50;;;;;;;;;;5014209;28;20563;-65
2022/01/04 00:52:36;;;;;;;91.53;45.90;;;;;;;;;;5014182;28;20518;-64
2022/01/04 00:55:02;;;;;;;92.80;45.57;;;;;;;;;;5013920;28;20036;-64
2022/01/04 00:57:28;;;;;;;84.53;45.77;;;;;;;;;;5014250;28;20109;-64
2022/01/04 00:59:54;;;;;;;79.83;45.37;;;;;;;;;;5013686;28;20531;-64
2022/01/04 01:02:20;;;;;;;83.97;46.57;;;;;;;;;;5018143;28;20106;-64
2022/01/04 01:04:46;;;;;;;85.83;45.80;;;;;;;;;;5013790;28;20088;-64
2022/01/04 01:07:13;;;;;;;85.77;47.03;;;;;;;;;;5014036;28;20037;-64
2022/01/04 01:09:50;;;;;;;75.27;42.80;;;;;;;;;;5013290;28;20793;-64
2022/01/04 01:12:16;;;;;;;86.43;46.23;;;;;;;;;;5013105;28;20057;-64
2022/01/04 01:14:42;;;;;;;77.67;43.43;;;;;;;;;;5013538;28;20372;-64
2022/01/04 01:17:08;;;;;;;81.57;43.23;;;;;;;;;;5014188;28;20396;-64
2022/01/04 01:19:36;;;;;;;78.43;43.63;;;;;;;;;;5012708;28;20029;-64
2022/01/04 01:22:02;;;;;;;85.43;46.37;;;;;;;;;;4996520;28;20037;-64
2022/01/04 01:24:28;;;;;;;84.87;45.43;;;;;;;;;;5013050;28;20014;-64
2022/01/04 01:26:54;;;;;;;82.00;44.33;;;;;;;;;;5013604;28;20028;-64
2022/01/04 01:29:20;;;;;;;81.87;44.33;;;;;;;;;;5014092;28;20014;-64
2022/01/04 01:31:46;;;;;;;76.63;41.90;;;;;;;;;;5012683;28;20042;-64
2022/01/04 01:34:12;;;;;;;79.53;43.17;;;;;;;;;;5014011;28;20033;-64
2022/01/04 01:36:38;;;;;;;80.87;46.40;;;;;;;;;;5013544;28;20406;-64
2022/01/04 01:39:04;;;;;;;85.27;46.73;;;;;;;;;;5013263;28;20347;-64
2022/01/04 01:41:30;;;;;;;86.33;46.20;;;;;;;;;;4995493;28;20036;-64
2022/01/04 01:43:56;;;;;;;77.80;43.77;;;;;;;;;;5013409;28;20403;-64
2022/01/04 01:46:22;;;;;;;88.17;48.33;;;;;;;;;;5013122;28;20041;-64
2022/01/04 01:48:48;;;;;;;89.47;50.90;;;;;;;;;;5027383;28;20033;-64
2022/01/04 01:51:16;;;;;;;80.90;46.20;;;;;;;;;;5001333;28;20061;-64
2022/01/04 01:53:42;;;;;;;81.13;46.47;;;;;;;;;;5013680;28;20030;-64
2022/01/04 01:56:09;;;;;;;78.30;45.50;;;;;;;;;;5012675;28;20034;-64
2022/01/04 01:58:35;;;;;;;78.30;45.30;;;;;;;;;;5015079;28;20108;-64
2022/01/04 02:01:01;;;;;;;74.97;44.07;;;;;;;;;;5012630;28;20030;-64
2022/01/04 02:03:27;;;;;;;74.23;42.97;;;;;;;;;;5013324;28;20036;-65
2022/01/04 02:05:53;;;;;;;75.70;42.30;;;;;;;;;;5012644;28;20030;-64
2022/01/04 02:08:19;;;;;;;76.17;42.57;;;;;;;;;;5009793;28;20030;-64
2022/01/04 02:10:45;;;;;;;80.17;42.90;;;;;;;;;;5012353;28;20052;-64
2022/01/04 02:13:12;;;;;;;74.80;44.03;;;;;;;;;;5012650;28;20073;-64
2022/01/04 02:15:38;;;;;;;69.03;40.30;;;;;;;;;;5012574;28;20539;-64
2022/01/04 02:18:05;;;;;;;72.77;44.43;;;;;;;;;;5012249;28;20026;-64
2022/01/04 02:20:31;;;;;;;78.70;42.57;;;;;;;;;;5012833;28;20134;-64
2022/01/04 02:22:57;;;;;;;79.67;45.27;;;;;;;;;;5011941;28;20069;-64
2022/01/04 02:25:23;;;;;;;76.10;43.20;;;;;;;;;;5012654;28;20026;-65
2022/01/04 02:27:49;;;;;;;72.20;41.73;;;;;;;;;;5016965;28;20026;-65
2022/01/04 02:30:17;;;;;;;70.47;42.57;;;;;;;;;;5027683;28;20083;-65
2022/01/04 02:32:44;;;;;;;73.97;42.30;;;;;;;;;;5013783;28;20038;-64
2022/01/04 02:35:11;;;;;;;69.73;41.27;;;;;;;;;;4998953;28;20022;-64
2022/01/04 02:37:37;;;;;;;78.10;42.70;;;;;;;;;;5015021;28;20075;-65
2022/01/04 02:40:03;;;;;;;78.03;43.47;;;;;;;;;;5015674;28;20026;-65
2022/01/04 02:42:29;;;;;;;77.83;44.33;;;;;;;;;;5002178;28;20088;-65
2022/01/04 02:44:55;;;;;;;80.37;44.00;;;;;;;;;;5015467;28;20064;-65
2022/01/04 02:47:22;;;;;;;72.73;42.73;;;;;;;;;;5016678;28;20026;-65
2022/01/04 02:49:48;;;;;;;76.37;43.73;;;;;;;;;;5015350;28;20479;-65
2022/01/04 02:52:14;;;;;;;70.27;43.17;;;;;;;;;;5015722;28;20034;-65
2022/01/04 02:54:40;;;;;;;73.03;42.07;;;;;;;;;;5016423;28;20447;-65
2022/01/04 02:57:06;;;;;;;76.57;43.87;;;;;;;;;;5022253;28;20507;-65
2022/01/04 02:59:32;;;;;;;75.07;43.63;;;;;;;;;;4999479;28;20026;-65
2022/01/04 03:01:58;;;;;;;75.97;43.37;;;;;;;;;;5016016;28;20041;-65
2022/01/04 03:04:24;;;;;;;73.93;44.23;;;;;;;;;;5016480;28;20026;-65
2022/01/04 03:06:50;;;;;;;69.77;41.80;;;;;;;;;;5015146;28;20040;-65
2022/01/04 03:09:16;;;;;;;75.77;44.23;;;;;;;;;;5031053;28;20029;-65
2022/01/04 03:11:42;;;;;;;79.60;43.63;;;;;;;;;;5026594;28;20041;-65
2022/01/04 03:14:08;;;;;;;74.57;42.17;;;;;;;;;;5016295;28;20468;-65
2022/01/04 03:16:35;;;;;;;73.43;43.63;;;;;;;;;;5016830;28;20030;-65
2022/01/04 03:21:27;;;;;;;76.63;45.87;;;;;;;;;;5029307;28;20149;-65
2022/01/04 03:23:53;;;;;;;71.80;41.50;;;;;;;;;;5016185;28;20068;-65
2022/01/04 03:26:19;;;;;;;72.27;43.10;;;;;;;;;;5014538;28;20032;-65
2022/01/04 03:28:45;;;;;;;73.10;42.77;;;;;;;;;;5024643;28;20033;-65
2022/01/04 03:31:12;;;;;;;64.63;39.33;;;;;;;;;;4997509;28;20038;-65
2022/01/04 03:33:38;;;;;;;76.07;43.20;;;;;;;;;;5016360;28;20468;-65
2022/01/04 03:36:05;;;;;;;73.23;42.23;;;;;;;;;;5013833;28;20030;-65
2022/01/04 03:38:31;;;;;;;71.43;41.57;;;;;;;;;;5015333;28;20026;-65
2022/01/04 03:40:58;;;;;;;68.90;42.13;;;;;;;;;;5033765;28;20356;-65
2022/01/04 03:43:24;;;;;;;69.03;40.93;;;;;;;;;;5015398;28;20022;-65
2022/01/04 03:45:50;;;;;;;72.33;42.00;;;;;;;;;;5013682;28;20029;-65
2022/01/04 03:48:16;;;;;;;70.63;42.57;;;;;;;;;;5014868;28;20487;-65
2022/01/04 03:50:42;;;;;;;74.33;44.07;;;;;;;;;;4998043;28;20403;-65
2022/01/04 03:53:08;;;;;;;74.57;43.23;;;;;;;;;;4997206;28;20038;-65
2022/01/04 03:55:34;;;;;;;76.60;44.10;;;;;;;;;;5015896;28;20037;-65
2022/01/04 03:58:00;;;;;;;76.90;44.70;;;;;;;;;;5017247;28;20025;-66
2022/01/04 04:00:27;;;;;;;74.03;42.63;;;;;;;;;;5015401;28;20092;-64
2022/01/04 04:02:53;;;;;;;67.60;39.97;;;;;;;;;;5014745;28;20109;-64
2022/01/04 04:05:19;;;;;;;76.20;43.57;;;;;;;;;;5008112;28;20026;-63
2022/01/04 04:07:45;;;;;;;70.90;44.17;;;;;;;;;;5014552;28;20468;-64
2022/01/04 04:10:11;;;;;;;72.20;41.37;;;;;;;;;;5015155;28;20116;-64
2022/01/04 04:12:37;;;;;;;75.60;42.63;;;;;;;;;;5014432;28;20053;-64
2022/01/04 04:15:05;;;;;;;72.30;42.10;;;;;;;;;;5015522;28;20034;-64
2022/01/04 04:17:31;;;;;;;73.57;43.03;;;;;;;;;;5021486;28;20416;-65
2022/01/04 04:19:57;;;;;;;67.73;41.07;;;;;;;;;;5028893;28;20132;-64
2022/01/04 04:22:23;;;;;;;76.13;41.83;;;;;;;;;;5022782;28;20566;-64
2022/01/04 04:24:49;;;;;;;73.40;41.93;;;;;;;;;;5013049;28;20057;-64
2022/01/04 04:27:15;;;;;;;76.77;41.13;;;;;;;;;;5014448;28;20053;-64
2022/01/04 04:29:41;;;;;;;69.67;41.27;;;;;;;;;;5017601;28;20068;-64
2022/01/04 04:32:08;;;;;;;72.70;41.30;;;;;;;;;;5013554;28;20092;-64
2022/01/04 04:34:34;;;;;;;73.47;44.47;;;;;;;;;;5016455;28;20423;-64
2022/01/04 04:37:00;;;;;;;71.37;41.83;;;;;;;;;;5026705;28;20038;-65
2022/01/04 04:39:35;;;;;;;81.10;44.97;;;;;;;;;;5014854;28;20041;-65
2022/01/04 04:42:01;;;;;;;76.27;43.00;;;;;;;;;;4989793;28;20370;-65
2022/01/04 04:44:27;;;;;;;76.97;42.80;;;;;;;;;;5009125;28;20129;-65
2022/01/04 04:46:53;;;;;;;69.23;41.17;;;;;;;;;;5014022;28;20057;-65
2022/01/04 04:49:19;;;;;;;81.53;42.67;;;;;;;;;;5013664;28;20460;-65
2022/01/04 04:51:45;;;;;;;77.23;44.90;;;;;;;;;;4997110;28;20064;-65
2022/01/04 04:54:11;;;;;;;86.53;45.13;;;;;;;;;;5017539;28;20072;-65
2022/01/04 04:56:40;;;;;;;77.37;42.57;;;;;;;;;;5016000;28;20179;-65
2022/01/04 04:59:07;;;;;;;73.83;42.60;;;;;;;;;;5020364;28;20547;-65
2022/01/04 05:01:33;;;;;;;82.83;45.57;;;;;;;;;;5014623;28;20070;-65
2022/01/04 05:03:59;;;;;;;93.03;48.03;;;;;;;;;;5012613;28;20025;-64
2022/01/04 05:06:25;;;;;;;84.37;46.40;;;;;;;;;;5002643;28;20022;-65
2022/01/04 05:08:52;;;;;;;82.83;45.20;;;;;;;;;;5008423;28;20026;-66
2022/01/04 05:11:18;;;;;;;79.03;43.10;;;;;;;;;;5014161;28;20034;-65
2022/01/04 05:13:44;;;;;;;80.53;43.67;;;;;;;;;;5018222;28;20056;-65
2022/01/04 05:16:10;;;;;;;78.97;44.93;;;;;;;;;;5014116;28;20037;-65
2022/01/04 05:18:36;;;;;;;88.30;44.77;;;;;;;;;;5014254;28;20442;-65
2022/01/04 05:21:03;;;;;;;83.83;46.10;;;;;;;;;;5013403;28;20037;-65
2022/01/04 05:23:29;;;;;;;86.10;45.63;;;;;;;;;;4996277;28;20037;-65
2022/01/04 05:25:55;;;;;;;84.20;44.17;;;;;;;;;;5013341;28;20056;-65
2022/01/04 05:28:22;;;;;;;84.33;46.03;;;;;;;;;;5013654;28;20467;-65
2022/01/04 05:30:48;;;;;;;85.53;43.77;;;;;;;;;;5013327;28;20037;-65
2022/01/04 05:33:13;;;;;;;91.77;46.50;;;;;;;;;;5012237;28;20033;-65
2022/01/04 05:35:39;;;;;;;87.70;44.73;;;;;;;;;;5013377;28;20033;-65
2022/01/04 05:38:05;;;;;;;91.93;47.33;;;;;;;;;;5013788;28;20117;-65
2022/01/04 05:40:32;;;;;;;94.07;45.70;;;;;;;;;;5013320;28;20140;-64
2022/01/04 05:42:58;;;;;;;87.43;44.87;;;;;;;;;;5013695;28;20101;-65
2022/01/04 05:45:24;;;;;;;98.93;46.40;;;;;;;;;;5013318;28;20037;-65
2022/01/04 05:47:50;;;;;;;93.53;46.43;;;;;;;;;;5013356;28;20030;-65
2022/01/04 05:50:16;;;;;;;89.03;45.63;;;;;;;;;;5012756;28;20034;-65
2022/01/04 05:52:42;;;;;;;97.80;50.40;;;;;;;;;;5017129;28;20044;-65
2022/01/04 05:55:08;;;;;;;105.10;50.67;;;;;;;;;;5012562;28;20025;-65
2022/01/04 05:57:34;;;;;;;104.27;48.80;;;;;;;;;;4995033;28;20030;-65
2022/01/04 06:00:00;;;;;;;107.37;50.00;;;;;;;;;;5012536;28;20087;-65
2022/01/04 06:02:26;;;;;;;107.70;52.70;;;;;;;;;;5013002;28;20029;-65
2022/01/04 06:04:52;;;;;;;109.57;50.67;;;;;;;;;;5012565;28;20049;-64
2022/01/04 06:07:18;;;;;;;97.53;49.10;;;;;;;;;;5012529;28;20022;-64
2022/01/04 06:09:48;;;;;;;103.93;52.70;;;;;;;;;;5012684;28;20034;-65
2022/01/04 06:14:57;;;;;;;113.60;53.37;;;;;;;;;;5000344;28;20087;-64
2022/01/04 06:17:27;;;;;;;114.07;53.27;;;;;;;;;;4995369;28;20551;-64
2022/01/04 06:19:55;;;;;;;103.90;51.37;;;;;;;;;;5012352;28;20105;-64
2022/01/04 06:22:21;;;;;;;112.70;50.97;;;;;;;;;;5012751;28;20022;-64
2022/01/04 06:24:47;;;;;;;107.17;50.50;;;;;;;;;;5022125;28;20030;-65
2022/01/04 06:27:13;;;;;;;122.77;55.00;;;;;;;;;;5012166;28;20014;-64
2022/01/04 06:29:40;;;;;;;108.70;51.80;;;;;;;;;;5011629;28;20029;-64
2022/01/04 06:32:07;;;;;;;109.53;51.00;;;;;;;;;;5014760;28;20056;-64
2022/01/04 06:34:34;;;;;;;99.77;47.20;;;;;;;;;;5018513;28;20113;-64
2022/01/04 06:37:00;;;;;;;103.83;49.47;;;;;;;;;;5012584;28;20504;-66
2022/01/04 06:39:26;;;;;;;110.00;49.73;;;;;;;;;;5010550;28;20036;-64
2022/01/04 06:41:52;;;;;;;107.73;50.23;;;;;;;;;;5012587;28;20076;-64
2022/01/04 06:44:18;;;;;;;102.53;51.03;;;;;;;;;;5011251;28;20034;-64
2022/01/04 06:46:45;;;;;;;100.63;48.73;;;;;;;;;;5003726;28;20039;-64
2022/01/04 06:49:12;;;;;;;105.80;49.20;;;;;;;;;;5015253;28;20049;-64
2022/01/04 06:51:39;;;;;;;102.43;49.33;;;;;;;;;;5012714;28;20037;-64
2022/01/04 06:54:05;;;;;;;110.37;50.93;;;;;;;;;;5027355;28;20428;-64
2022/01/04 06:56:31;;;;;;;101.03;48.53;;;;;;;;;;5027486;28;20097;-64
2022/01/04 06:58:57;;;;;;;110.17;52.53;;;;;;;;;;5012574;28;20104;-64
2022/01/04 07:01:23;;;;;;;105.77;51.40;;;;;;;;;;4994973;28;20062;-64
2022/01/04 07:03:49;;;;;;;119.13;54.50;;;;;;;;;;5017175;28;20030;-64
2022/01/04 07:06:15;;;;;;;122.93;57.60;;;;;;;;;;5013144;28;20022;-64
2022/01/04 07:08:41;;;;;;;127.30;58.87;;;;;;;;;;5011701;28;20157;-64
2022/01/04 07:11:07;;;;;;;134.20;58.17;;;;;;;;;;5012698;28;20113;-65
2022/01/04 07:13:33;;;;;;;131.17;60.23;;;;;;;;;;5016290;28;20050;-64
2022/01/04 07:15:59;;;;;;;129.40;58.10;;;;;;;;;;5027864;28;20037;-64
2022/01/04 07:18:25;;;;;;;136.80;59.67;;;;;;;;;;5012079;28;20105;-64
2022/01/04 07:20:51;;;;;;;116.10;55.97;;;;;;;;;;4998893;28;20053;-64
2022/01/04 07:23:17;;;;;;;116.70;55.90;;;;;;;;;;5015213;28;20057;-64
2022/01/04 07:25:43;;;;;;;122.87;56.27;;;;;;;;;;5023977;28;20084;-65
2022/01/04 07:28:10;;;;;;;137.27;59.23;;;;;;;;;;5015715;28;20025;-65
2022/01/04 07:30:36;;;;;;;131.17;58.07;;;;;;;;;;5015972;28;20495;-65
2022/01/04 07:33:02;;;;;;;131.50;56.77;;;;;;;;;;4996672;28;20084;-65
2022/01/04 07:35:28;;;;;;;119.17;53.90;;;;;;;;;;5022734;28;20025;-65
2022/01/04 07:37:54;;;;;;;121.73;58.97;;;;;;;;;;5017518;28;20025;-65
2022/01/04 07:40:20;;;;;;;120.60;54.40;;;;;;;;;;5015490;28;20110;-65
2022/01/04 07:42:46;;;;;;;116.23;54.33;;;;;;;;;;5016065;28;20045;-65
2022/01/04 07:45:12;;;;;;;111.53;53.67;;;;;;;;;;5019596;28;20519;-65
2022/01/04 07:47:41;;;;;;;110.43;53.10;;;;;;;;;;5030245;28;20034;-64
2022/01/04 07:50:07;;;;;;;110.20;52.67;;;;;;;;;;5015373;28;20068;-63
2022/01/04 07:52:33;;;;;;;111.83;53.37;;;;;;;;;;5015302;28;20057;-64
2022/01/04 07:55:00;;;;;;;112.23;52.43;;;;;;;;;;5013117;28;20030;-64
2022/01/04 07:57:26;;;;;;;127.27;57.30;;;;;;;;;;5013802;28;20026;-64
2022/01/04 07:59:52;;;;;;;115.70;55.27;;;;;;;;;;5015065;28;20057;-64
2022/01/04 08:02:18;;;;;;;111.43;54.27;;;;;;;;;;5013779;28;20164;-65
2022/01/04 08:04:44;;;;;;;125.00;54.73;;;;;;;;;;5014184;28;20576;-64
2022/01/04 08:07:10;;;;;;;106.67;52.27;;;;;;;;;;5016338;28;20038;-64
2022/01/04 08:09:36;;;;;;;107.87;53.03;;;;;;;;;;5014594;28;20108;-64
2022/01/04 08:12:03;;;;;;;99.73;48.57;;;;;;;;;;5015350;28;20176;-64
2022/01/04 08:14:29;;;;;;;101.50;49.60;;;;;;;;;;5014086;28;20387;-64
2022/01/04 08:16:55;;;;;;;105.53;50.03;;;;;;;;;;5022291;28;20029;-65
2022/01/04 08:19:22;;;;;;;102.07;51.47;;;;;;;;;;5006773;28;20494;-65
2022/01/04 08:21:48;;;;;;;107.60;51.23;;;;;;;;;;5014827;28;20037;-64
2022/01/04 08:24:14;;;;;;;108.63;52.13;;;;;;;;;;5017819;28;20041;-65
2022/01/04 08:26:40;;;;;;;95.83;49.53;;;;;;;;;;5013307;28;20030;-65
2022/01/04 08:29:06;;;;;;;107.97;52.17;;;;;;;;;;5013293;28;20116;-65
2022/01/04 08:31:32;;;;;;;106.17;51.93;;;;;;;;;;5013000;28;20129;-65
2022/01/04 08:33:59;;;;;;;98.63;49.97;;;;;;;;;;5017663;28;20402;-65
2022/01/04 08:36:28;;;;;;;99.67;49.40;;;;;;;;;;5014849;28;20030;-65
2022/01/04 08:38:54;;;;;;;94.33;48.10;;;;;;;;;;5013530;28;20030;-65
2022/01/04 08:41:20;;;;;;;98.73;46.47;;;;;;;;;;5015189;28;20056;-65
2022/01/04 08:43:46;;;;;;;96.10;46.10;;;;;;;;;;5008236;28;20053;-64
2022/01/04 08:46:13;;;;;;;88.57;45.93;;;;;;;;;;5014572;28;20037;-64
2022/01/04 08:48:39;;;;;;;93.60;47.57;;;;;;;;;;5013784;28;20036;-64
2022/01/04 08:51:05;;;;;;;87.93;44.57;;;;;;;;;;5014553;28;20046;-64
2022/01/04 08:53:31;;;;;;;91.03;45.97;;;;;;;;;;5013511;28;20033;-64
2022/01/04 08:56:01;;;;;;;86.33;44.03;;;;;;;;;;5014683;28;20380;-64
2022/01/04 08:58:27;;;;;;;87.60;46.47;;;;;;;;;;5012789;28;20032;-64
2022/01/04 09:00:55;;;;;;;95.40;46.20;;;;;;;;;;5014538;28;20028;-65
2022/01/04 09:03:21;;;;;;;87.27;43.27;;;;;;;;;;5018124;28;20030;-65
2022/01/04 09:05:47;;;;;;;82.83;40.77;;;;;;;;;;5014402;28;20037;-65
2022/01/04 09:08:13;;;;;;;78.73;42.17;;;;;;;;;;4997024;28;20129;-65
2022/01/04 09:10:39;;;;;;;87.53;44.27;;;;;;;;;;5014561;28;20133;-65
2022/01/04 09:13:11;;;;;;;87.03;42.27;;;;;;;;;;5014360;28;20053;-64
2022/01/04 09:20:50;;;;;;;91.63;44.50;;;;;;;;;;5014178;28;20498;-64
2022/01/04 09:23:18;;;;;;;94.10;43.97;;;;;;;;;;5013086;28;20021;-64
2022/01/04 09:25:45;;;;;;;94.47;44.80;;;;;;;;;;4995629;28;20030;-64
2022/01/04 09:28:24;;;;;;;102.40;48.47;;;;;;;;;;5012756;28;20022;-64
2022/01/04 09:30:51;;;;;;;96.50;47.20;;;;;;;;;;5011727;28;20553;-65
2022/01/04 09:33:17;;;;;;;91.93;46.80;;;;;;;;;;5013940;28;20046;-65
2022/01/04 09:35:44;;;;;;;91.80;46.13;;;;;;;;;;5013431;28;20033;-65
2022/01/04 09:38:10;;;;;;;99.60;48.73;;;;;;;;;;5013257;28;20065;-65
2022/01/04 09:40:38;;;;;;;87.90;45.13;;;;;;;;;;5013070;28;20096;-65
2022/01/04 09:43:05;;;;;;;87.40;45.53;;;;;;;;;;5013504;28;20529;-65
2022/01/04 09:45:31;;;;;;;87.67;43.63;;;;;;;;;;5013293;28;20069;-65
2022/01/04 09:47:57;;;;;;;82.03;42.90;;;;;;;;;;5012537;28;20056;-64
2022/01/04 09:50:23;;;;;;;89.90;43.17;;;;;;;;;;5010047;28;20108;-64
2022/01/04 09:52:49;;;;;;;90.63;44.50;;;;;;;;;;5013700;28;20034;-64
2022/01/04 09:55:16;;;;;;;91.07;47.87;;;;;;;;;;4978439;28;20112;-64
2022/01/04 09:57:43;;;;;;;90.00;46.30;;;;;;;;;;5011425;28;20401;-64
2022/01/04 10:00:12;;;;;;;90.47;46.23;;;;;;;;;;5013234;28;20029;-64
2022/01/04 10:02:38;;;;;;;92.67;46.97;;;;;;;;;;4994757;28;20125;-64
2022/01/04 10:05:13;;;;;;;91.73;45.23;;;;;;;;;;5013642;28;20464;-64
2022/01/04 10:07:39;;;;;;;93.70;48.63;;;;;;;;;;5014899;28;20064;-64
2022/01/04 10:10:05;;;;;;;93.87;47.23;;;;;;;;;;5013593;28;20392;-64
2022/01/04 10:12:47;;;;;;;92.90;48.00;;;;;;;;;;5005764;28;20067;-64
2022/01/04 10:15:13;;;;;;;87.30;48.17;;;;;;;;;;5013514;28;20031;-64
2022/01/04 10:17:39;;;;;;;91.20;47.17;;;;;;;;;;5012037;28;20084;-64
2022/01/04 10:20:07;;;;;;;94.23;49.30;;;;;;;;;;5013478;28;20061;-64
2022/01/04 10:22:35;;;;;;;88.57;48.23;;;;;;;;;;5012125;28;20017;-64
2022/01/04 10:25:01;;;;;;;92.70;47.30;;;;;;;;;;5012014;28;20026;-64
2022/01/04 10:27:56;;;;;;;92.67;48.87;;;;;;;;;;5010188;28;20033;-64
2022/01/04 10:30:23;;;;;;;84.38;46.40;;;;;;;;;;4996097;28;20046;-64
2022/01/04 10:32:51;;;;;;;97.33;49.13;;;;;;;;;;5009767;28;20113;-64
2022/01/04 10:35:21;;;;;;;89.90;47.43;;;;;;;;;;5013260;28;20030;-64
2022/01/04 10:37:47;;;;;;;88.70;48.00;;;;;;;;;;5010986;28;20034;-64
2022/01/04 10:40:13;;;;;;;89.60;49.10;;;;;;;;;;5020570;28;20591;-64
2022/01/04 10:42:39;;;;;;;91.20;49.77;;;;;;;;;;5011842;28;20026;-64
2022/01/04 10:45:41;;;;;;;97.83;50.50;;;;;;;;;;5012531;28;20169;-64
2022/01/04 10:48:12;;;;;;;91.80;46.77;;;;;;;;;;4951559;29;20027;-64
2022/01/04 10:50:38;;;;;;;98.37;48.40;;;;;;;;;;5003597;28;20117;-65
2022/01/04 10:53:05;;;;;;;95.00;49.93;;;;;;;;;;5011749;28;20407;-65
2022/01/04 10:55:32;;;;;;;97.77;50.07;;;;;;;;;;5016873;28;20029;-65
2022/01/04 10:57:58;;;;;;;98.97;50.30;;;;;;;;;;5013481;28;20014;-65
2022/01/04 11:00:24;;;;;;;91.97;50.70;;;;;;;;;;5022768;28;20116;-65
2022/01/04 11:02:50;;;;;;;94.53;51.07;;;;;;;;;;5015914;28;20014;-65
2022/01/04 11:05:21;;;;;;;96.00;49.13;;;;;;;;;;5016614;28;20183;-65
2022/01/04 11:08:00;;;;;;;94.53;49.30;;;;;;;;;;5016044;28;20022;-64
2022/01/04 11:10:28;;;;;;;94.23;49.53;;;;;;;;;;5016263;28;20411;-65
2022/01/04 11:12:55;;;;;;;89.00;48.00;;;;;;;;;;5015447;28;20054;-64
2022/01/04 11:15:22;;;;;;;78.33;44.30;;;;;;;;;;5016684;28;20038;-65
2022/01/04 11:17:48;;;;;;;85.23;43.77;;;;;;;;;;5015319;28;20029;-66
2022/01/04 11:20:14;;;;;;;79.10;41.03;;;;;;;;;;5016166;28;20475;-65
2022/01/04 11:22:41;;;;;;;77.57;41.73;;;;;;;;;;4997808;28;20014;-66
2022/01/04 11:25:07;;;;;;;73.53;41.53;;;;;;;;;;5015312;28;20041;-65
2022/01/04 11:27:36;;;;;;;67.23;36.87;;;;;;;;;;5015744;28;20034;-65
2022/01/04 11:30:06;;;;;;;72.70;37.93;;;;;;;;;;5008697;28;20384;-65
2022/01/04 11:32:33;;;;;;;68.67;38.17;;;;;;;;;;5008532;28;20502;-65
2022/01/04 11:35:16;;;;;;;73.87;41.03;;;;;;;;;;5016578;28;20068;-65
2022/01/04 11:37:50;;;;;;;69.63;37.57;;;;;;;;;;5015358;28;20029;-65
2022/01/04 11:40:25;;;;;;;65.35;37.10;;;;;;;;;;5035256;28;20083;-66
2022/01/04 11:42:51;;;;;;;;;;;;;;;;;;5020237;28;20022;-66
2022/01/04 11:45:37;;;;;;;65.97;36.30;;;;;;;;;;5016153;28;19960;-65
2022/01/04 11:48:03;;;;;;;59.00;33.23;;;;;;;;;;5015089;28;20030;-66
2022/01/04 11:50:35;;;;;;;56.80;34.03;;;;;;;;;;5034402;28;20029;-65
2022/01/04 11:53:06;;;;;;;56.53;33.53;;;;;;;;;;5016176;28;20053;-66
2022/01/04 11:55:36;;;;;;;56.00;33.70;;;;;;;;;;5015974;28;20109;-65
2022/01/04 11:58:08;;;;;;;53.23;33.63;;;;;;;;;;5015331;28;20044;-66
2022/01/04 12:00:40;;;;;;;55.30;32.83;;;;;;;;;;5000324;28;20041;-65
2022/01/04 12:03:10;;;;;;;57.33;33.10;;;;;;;;;;5011907;28;20395;-66
2022/01/04 12:05:39;;;;;;;53.77;35.87;;;;;;;;;;5030413;28;20065;-65
2022/01/04 12:08:15;;;;;;;51.57;32.70;;;;;;;;;;4995961;28;20030;-65
2022/01/04 12:10:41;;;;;;;53.47;34.10;;;;;;;;;;5015585;28;20033;-66
2022/01/04 12:13:16;;;;;;;61.00;36.63;;;;;;;;;;5014506;28;20065;-65
2022/01/04 12:15:53;;;;;;;61.38;36.55;;;;;;;;;;5024159;28;20113;-66
2022/01/04 12:18:34;;;;;;;61.03;34.27;;;;;;;;;;5013921;28;20030;-65
2022/01/04 12:21:01;;;;;;;57.63;35.10;;;;;;;;;;5013556;28;20533;-65
2022/01/04 12:23:31;;;;;;;53.47;34.00;;;;;;;;;;5013576;28;20030;-66
2022/01/04 12:26:03;;;;;;;58.73;35.43;;;;;;;;;;5033057;28;20087;-66
2022/01/04 12:28:33;;;;;;;55.70;34.30;;;;;;;;;;5014948;28;20396;-66
2022/01/04 12:31:17;;;;;;;60.10;35.60;;;;;;;;;;5014695;28;20050;-66
2022/01/04 12:33:46;;;;;;;54.80;32.93;;;;;;;;;;5014382;28;20057;-66
2022/01/04 12:36:23;;;;;;;56.23;35.17;;;;;;;;;;5015479;28;20766;-67
2022/01/04 12:38:50;;;;;;;59.10;34.23;;;;;;;;;;5017149;28;20109;-67
2022/01/04 12:41:16;;;;;;;54.63;33.40;;;;;;;;;;5034610;28;20526;-67
2022/01/04 12:43:46;;;;;;;57.87;33.77;;;;;;;;;;5014427;28;20382;-67
2022/01/04 12:46:13;;;;;;;57.67;34.87;;;;;;;;;;5013321;28;20502;-66
2022/01/04 12:48:47;;;;;;;58.50;34.87;;;;;;;;;;5013500;28;20030;-66
2022/01/04 12:51:32;;;;;;;59.53;34.05;;;;;;;;;;4996388;28;20084;-66
2022/01/04 12:57:20;;;;;;;54.07;34.60;;;;;;;;;;5001069;28;20041;-66
2022/01/04 12:59:47;;;;;;;53.90;32.97;;;;;;;;;;5007141;28;20030;-66
2022/01/04 13:02:14;;;;;;;56.40;33.57;;;;;;;;;;5005637;28;20392;-65
2022/01/04 13:05:01;;;;;;;56.90;33.03;;;;;;;;;;5011439;28;20407;-65
2022/01/04 13:11:02;;;;;;;49.90;31.67;;;;;;;;;;4952895;29;20150;-65
2022/01/04 13:13:30;;;;;;;59.80;34.30;;;;;;;;;;4947577;29;20048;-65
2022/01/04 13:15:56;;;;;;;55.77;33.07;;;;;;;;;;4987910;28;20042;-65
2022/01/04 13:18:28;;;;;;;52.90;32.53;;;;;;;;;;5008905;28;20061;-65
2022/01/04 13:21:05;;;;;;;50.80;31.70;;;;;;;;;;5014107;28;20022;-64
2022/01/04 13:23:36;;;;;;;52.53;33.80;;;;;;;;;;5005831;28;20056;-64
2022/01/04 13:26:02;;;;;;;51.40;33.53;;;;;;;;;;5014455;28;20022;-65
2022/01/04 13:28:28;;;;;;;50.83;32.70;;;;;;;;;;5012570;28;20037;-65
2022/01/04 13:30:54;;;;;;;51.57;32.83;;;;;;;;;;5013902;28;20059;-65
2022/01/04 13:33:23;;;;;;;48.93;32.57;;;;;;;;;;5022253;28;20056;-64
2022/01/04 13:35:50;;;;;;;54.33;32.73;;;;;;;;;;5033655;28;20365;-64
2022/01/04 13:38:19;;;;;;;57.37;34.17;;;;;;;;;;5022502;28;20060;-64
2022/01/04 13:40:45;;;;;;;49.03;31.53;;;;;;;;;;5013941;28;20145;-64
2022/01/04 13:43:11;;;;;;;50.23;32.23;;;;;;;;;;5016318;28;20057;-64
2022/01/04 13:46:00;;;;;;;54.33;33.37;;;;;;;;;;5015345;28;20037;-64
2022/01/04 13:48:31;;;;;;;56.73;34.37;;;;;;;;;;5007307;28;20036;-64
2022/01/04 13:51:10;;;;;;;53.60;34.03;;;;;;;;;;5013653;28;20038;-65
2022/01/04 13:53:37;;;;;;;49.83;31.50;;;;;;;;;;5012498;28;20033;-64
2022/01/04 13:56:08;;;;;;;47.83;31.57;;;;;;;;;;5016339;28;20052;-64
2022/01/04 13:58:41;;;;;;;52.97;34.67;;;;;;;;;;5013246;28;20550;-64
2022/01/04 14:01:18;;;;;;;51.83;32.87;;;;;;;;;;5013886;28;20026;-64
2022/01/04 14:03:49;;;;;;;50.57;34.77;;;;;;;;;;5012551;28;20037;-64
2022/01/04 14:06:27;;;;;;;63.83;40.80;;;;;;;;;;5018478;28;20025;-64
2022/01/04 14:08:53;;;;;;;58.60;39.63;;;;;;;;;;5012476;28;20040;-64
2022/01/04 14:11:23;;;;;;;49.70;33.10;;;;;;;;;;5013413;28;20104;-64
2022/01/04 14:13:50;;;;;;;49.50;32.53;;;;;;;;;;5012209;28;20042;-64
2022/01/04 14:16:17;;;;;;;47.03;29.97;;;;;;;;;;5013448;28;20531;-64
2022/01/04 14:19:02;;;;;;;51.80;33.40;;;;;;;;;;5012222;28;20022;-65
2022/01/04 14:21:28;;;;;;;;;;;;;;;;;;5013587;28;20049;-65
2022/01/04 14:23:54;;;;;;;50.85;32.17;;;;;;;;;;5012248;28;19957;-65
2022/01/04 14:26:23;;;;;;;42.37;28.43;;;;;;;;;;5000883;28;20033;-65
2022/01/04 14:28:49;;;;;;;43.37;29.73;;;;;;;;;;5016913;28;20049;-65
2022/01/04 14:31:19;;;;;;;42.70;28.90;;;;;;;;;;5012854;28;20034;-65
2022/01/04 14:33:45;;;;;;;41.97;29.00;;;;;;;;;;5005514;28;20030;-65
2022/01/04 14:36:11;;;;;;;37.83;28.07;;;;;;;;;;4999190;28;20112;-65
2022/01/04 14:38:37;;;;;;;38.50;28.27;;;;;;;;;;5019836;28;20026;-64